sensor_id;sensor_type;location;lat;lon;timestamp;P1;durP1;ratioP1;P2;durP2;ratioP2
32319;SDS011;19080;51.750;5.888;2023-06-24T00:00:00;6.25;;;5.43;;
32319;SDS011;19080;51.750;5.888;2023-06-24T00:02:32;5.50;;;4.95;;
32319;SDS011;19080;51.750;5.888;2023-06-24T00:05:02;5.13;;;4.32;;
32319;SDS011;19080;51.750;5.888;2023-06-24T00:07:30;9.23;;;8.07;;
32319;SDS011;19080;51.750;5.888;2023-06-24T00:09:57;6.28;;;5.68;;
32319;SDS011;19080;51.750;5.888;2023-06-24T00:12:23;5.72;;;5.22;;
32319;SDS011;19080;51.750;5.888;2023-06-24T00:14:50;6.00;;;5.40;;
32319;SDS011;19080;51.750;5.888;2023-06-24T00:17:17;5.75;;;5.25;;
32319;SDS011;19080;51.750;5.888;2023-06-24T00:19:43;6.45;;;5.68;;
32319;SDS011;19080;51.750;5.888;2023-06-24T00:22:10;5.75;;;5.15;;
32319;SDS011;19080;51.750;5.888;2023-06-24T00:24:40;6.07;;;4.97;;
32319;SDS011;19080;51.750;5.888;2023-06-24T00:27:09;7.03;;;5.25;;
32319;SDS011;19080;51.750;5.888;2023-06-24T00:29:36;5.10;;;4.50;;
32319;SDS011;19080;51.750;5.888;2023-06-24T00:32:04;6.10;;;5.32;;
32319;SDS011;19080;51.750;5.888;2023-06-24T00:34:31;5.10;;;4.70;;
32319;SDS011;19080;51.750;5.888;2023-06-24T00:36:58;5.63;;;4.63;;
32319;SDS011;19080;51.750;5.888;2023-06-24T00:39:26;4.82;;;4.43;;
32319;SDS011;19080;51.750;5.888;2023-06-24T00:41:53;9.07;;;4.85;;
32319;SDS011;19080;51.750;5.888;2023-06-24T00:44:21;6.78;;;5.15;;
32319;SDS011;19080;51.750;5.888;2023-06-24T00:46:51;6.10;;;5.50;;
32319;SDS011;19080;51.750;5.888;2023-06-24T00:49:18;5.95;;;5.45;;
32319;SDS011;19080;51.750;5.888;2023-06-24T00:51:45;4.90;;;4.50;;
32319;SDS011;19080;51.750;5.888;2023-06-24T00:54:17;5.47;;;4.90;;
32319;SDS011;19080;51.750;5.888;2023-06-24T00:56:45;5.75;;;5.22;;
32319;SDS011;19080;51.750;5.888;2023-06-24T00:59:15;6.18;;;5.57;;
32319;SDS011;19080;51.750;5.888;2023-06-24T01:01:43;7.43;;;6.13;;
32319;SDS011;19080;51.750;5.888;2023-06-24T01:04:11;7.47;;;5.43;;
32319;SDS011;19080;51.750;5.888;2023-06-24T01:06:38;6.28;;;5.13;;
32319;SDS011;19080;51.750;5.888;2023-06-24T01:09:10;5.72;;;4.88;;
32319;SDS011;19080;51.750;5.888;2023-06-24T01:11:39;8.02;;;6.20;;
32319;SDS011;19080;51.750;5.888;2023-06-24T01:14:05;6.78;;;5.05;;
32319;SDS011;19080;51.750;5.888;2023-06-24T01:16:49;5.65;;;4.95;;
32319;SDS011;19080;51.750;5.888;2023-06-24T01:22:07;5.40;;;4.53;;
32319;SDS011;19080;51.750;5.888;2023-06-24T01:24:59;5.40;;;4.90;;
32319;SDS011;19080;51.750;5.888;2023-06-24T01:30:24;5.85;;;5.25;;
32319;SDS011;19080;51.750;5.888;2023-06-24T01:33:17;6.40;;;5.57;;
32319;SDS011;19080;51.750;5.888;2023-06-24T01:35:52;6.95;;;5.82;;
32319;SDS011;19080;51.750;5.888;2023-06-24T01:38:27;9.05;;;7.40;;
32319;SDS011;19080;51.750;5.888;2023-06-24T01:41:02;11.05;;;9.80;;
32319;SDS011;19080;51.750;5.888;2023-06-24T01:43:31;10.50;;;9.60;;
32319;SDS011;19080;51.750;5.888;2023-06-24T01:45:59;9.57;;;8.68;;
32319;SDS011;19080;51.750;5.888;2023-06-24T01:48:28;12.73;;;11.00;;
32319;SDS011;19080;51.750;5.888;2023-06-24T01:51:03;11.55;;;10.45;;
32319;SDS011;19080;51.750;5.888;2023-06-24T01:53:39;12.30;;;11.00;;
32319;SDS011;19080;51.750;5.888;2023-06-24T01:56:11;10.27;;;9.02;;
32319;SDS011;19080;51.750;5.888;2023-06-24T01:58:41;10.17;;;8.90;;
32319;SDS011;19080;51.750;5.888;2023-06-24T02:01:09;8.60;;;7.75;;
32319;SDS011;19080;51.750;5.888;2023-06-24T02:03:40;10.70;;;7.90;;
32319;SDS011;19080;51.750;5.888;2023-06-24T02:06:08;9.05;;;8.25;;
32319;SDS011;19080;51.750;5.888;2023-06-24T02:08:37;11.18;;;9.23;;
32319;SDS011;19080;51.750;5.888;2023-06-24T02:11:06;10.77;;;9.45;;
32319;SDS011;19080;51.750;5.888;2023-06-24T02:13:35;10.27;;;7.75;;
32319;SDS011;19080;51.750;5.888;2023-06-24T02:16:10;8.20;;;7.40;;
32319;SDS011;19080;51.750;5.888;2023-06-24T02:18:41;8.95;;;8.15;;
32319;SDS011;19080;51.750;5.888;2023-06-24T02:21:09;10.13;;;9.05;;
32319;SDS011;19080;51.750;5.888;2023-06-24T02:23:38;10.55;;;8.30;;
32319;SDS011;19080;51.750;5.888;2023-06-24T02:26:06;9.75;;;7.72;;
32319;SDS011;19080;51.750;5.888;2023-06-24T02:28:33;8.82;;;8.02;;
32319;SDS011;19080;51.750;5.888;2023-06-24T02:31:02;9.95;;;8.15;;
32319;SDS011;19080;51.750;5.888;2023-06-24T02:33:31;10.68;;;8.48;;
32319;SDS011;19080;51.750;5.888;2023-06-24T02:35:58;7.60;;;6.80;;
32319;SDS011;19080;51.750;5.888;2023-06-24T02:38:25;10.00;;;7.68;;
32319;SDS011;19080;51.750;5.888;2023-06-24T02:40:54;9.20;;;8.05;;
32319;SDS011;19080;51.750;5.888;2023-06-24T02:43:21;10.50;;;8.90;;
32319;SDS011;19080;51.750;5.888;2023-06-24T02:45:47;9.40;;;8.40;;
32319;SDS011;19080;51.750;5.888;2023-06-24T02:48:17;10.50;;;9.00;;
32319;SDS011;19080;51.750;5.888;2023-06-24T02:50:45;12.20;;;8.50;;
32319;SDS011;19080;51.750;5.888;2023-06-24T02:53:14;10.73;;;9.52;;
32319;SDS011;19080;51.750;5.888;2023-06-24T02:55:41;11.80;;;10.43;;
32319;SDS011;19080;51.750;5.888;2023-06-24T02:58:09;11.82;;;10.13;;
32319;SDS011;19080;51.750;5.888;2023-06-24T03:00:39;12.38;;;11.07;;
32319;SDS011;19080;51.750;5.888;2023-06-24T03:03:08;12.43;;;11.00;;
32319;SDS011;19080;51.750;5.888;2023-06-24T03:06:05;10.88;;;9.75;;
32319;SDS011;19080;51.750;5.888;2023-06-24T03:08:36;11.60;;;10.50;;
32319;SDS011;19080;51.750;5.888;2023-06-24T03:11:03;11.45;;;9.95;;
32319;SDS011;19080;51.750;5.888;2023-06-24T03:13:32;11.98;;;10.77;;
32319;SDS011;19080;51.750;5.888;2023-06-24T03:16:11;10.05;;;9.05;;
32319;SDS011;19080;51.750;5.888;2023-06-24T03:18:47;15.50;;;12.32;;
32319;SDS011;19080;51.750;5.888;2023-06-24T03:21:14;13.88;;;12.38;;
32319;SDS011;19080;51.750;5.888;2023-06-24T03:23:41;15.75;;;12.25;;
32319;SDS011;19080;51.750;5.888;2023-06-24T03:26:11;14.40;;;12.90;;
32319;SDS011;19080;51.750;5.888;2023-06-24T03:28:38;16.30;;;11.40;;
32319;SDS011;19080;51.750;5.888;2023-06-24T03:31:14;13.43;;;12.02;;
32319;SDS011;19080;51.750;5.888;2023-06-24T03:33:44;15.85;;;13.65;;
32319;SDS011;19080;51.750;5.888;2023-06-24T03:36:13;12.95;;;11.57;;
32319;SDS011;19080;51.750;5.888;2023-06-24T03:38:40;11.77;;;10.57;;
32319;SDS011;19080;51.750;5.888;2023-06-24T03:41:08;13.15;;;11.40;;
32319;SDS011;19080;51.750;5.888;2023-06-24T03:43:34;11.20;;;10.10;;
32319;SDS011;19080;51.750;5.888;2023-06-24T03:46:01;13.30;;;11.00;;
32319;SDS011;19080;51.750;5.888;2023-06-24T03:48:28;12.05;;;10.85;;
32319;SDS011;19080;51.750;5.888;2023-06-24T03:50:55;11.25;;;9.85;;
32319;SDS011;19080;51.750;5.888;2023-06-24T03:53:22;10.13;;;9.13;;
32319;SDS011;19080;51.750;5.888;2023-06-24T03:55:50;11.30;;;10.18;;
32319;SDS011;19080;51.750;5.888;2023-06-24T03:58:16;11.27;;;10.18;;
32319;SDS011;19080;51.750;5.888;2023-06-24T04:00:43;11.15;;;10.13;;
32319;SDS011;19080;51.750;5.888;2023-06-24T04:03:10;12.82;;;11.52;;
32319;SDS011;19080;51.750;5.888;2023-06-24T04:05:38;17.15;;;12.50;;
32319;SDS011;19080;51.750;5.888;2023-06-24T04:08:05;12.38;;;11.10;;
32319;SDS011;19080;51.750;5.888;2023-06-24T04:10:34;11.10;;;9.88;;
32319;SDS011;19080;51.750;5.888;2023-06-24T04:13:00;11.93;;;10.73;;
32319;SDS011;19080;51.750;5.888;2023-06-24T04:15:27;13.00;;;11.43;;
32319;SDS011;19080;51.750;5.888;2023-06-24T04:17:54;11.82;;;10.10;;
32319;SDS011;19080;51.750;5.888;2023-06-24T04:20:20;10.93;;;9.82;;
32319;SDS011;19080;51.750;5.888;2023-06-24T04:22:47;12.27;;;10.98;;
32319;SDS011;19080;51.750;5.888;2023-06-24T04:25:15;11.95;;;10.32;;
32319;SDS011;19080;51.750;5.888;2023-06-24T04:27:42;11.00;;;9.13;;
32319;SDS011;19080;51.750;5.888;2023-06-24T04:30:09;9.65;;;8.48;;
32319;SDS011;19080;51.750;5.888;2023-06-24T04:32:36;9.88;;;8.88;;
32319;SDS011;19080;51.750;5.888;2023-06-24T04:35:02;9.50;;;8.60;;
32319;SDS011;19080;51.750;5.888;2023-06-24T04:37:31;7.55;;;6.75;;
32319;SDS011;19080;51.750;5.888;2023-06-24T04:39:58;8.77;;;7.88;;
32319;SDS011;19080;51.750;5.888;2023-06-24T04:42:25;8.15;;;7.30;;
32319;SDS011;19080;51.750;5.888;2023-06-24T04:44:52;10.43;;;7.82;;
32319;SDS011;19080;51.750;5.888;2023-06-24T04:47:18;8.52;;;6.88;;
32319;SDS011;19080;51.750;5.888;2023-06-24T04:49:45;7.45;;;6.70;;
32319;SDS011;19080;51.750;5.888;2023-06-24T04:52:12;7.20;;;6.50;;
32319;SDS011;19080;51.750;5.888;2023-06-24T04:54:39;7.28;;;5.80;;
32319;SDS011;19080;51.750;5.888;2023-06-24T04:57:07;7.68;;;6.75;;
32319;SDS011;19080;51.750;5.888;2023-06-24T04:59:35;8.55;;;7.15;;
32319;SDS011;19080;51.750;5.888;2023-06-24T05:02:04;6.80;;;6.18;;
32319;SDS011;19080;51.750;5.888;2023-06-24T05:04:31;10.25;;;7.65;;
32319;SDS011;19080;51.750;5.888;2023-06-24T05:06:57;8.40;;;7.57;;
32319;SDS011;19080;51.750;5.888;2023-06-24T05:09:24;9.20;;;8.30;;
32319;SDS011;19080;51.750;5.888;2023-06-24T05:11:51;9.13;;;7.82;;
32319;SDS011;19080;51.750;5.888;2023-06-24T05:14:17;9.80;;;8.60;;
32319;SDS011;19080;51.750;5.888;2023-06-24T05:16:44;9.98;;;8.63;;
32319;SDS011;19080;51.750;5.888;2023-06-24T05:19:11;11.32;;;9.77;;
32319;SDS011;19080;51.750;5.888;2023-06-24T05:21:38;11.95;;;10.52;;
32319;SDS011;19080;51.750;5.888;2023-06-24T05:24:05;11.55;;;10.43;;
32319;SDS011;19080;51.750;5.888;2023-06-24T05:26:32;9.63;;;8.63;;
32319;SDS011;19080;51.750;5.888;2023-06-24T05:28:58;11.88;;;10.65;;
32319;SDS011;19080;51.750;5.888;2023-06-24T05:31:25;15.70;;;13.10;;
32319;SDS011;19080;51.750;5.888;2023-06-24T05:33:52;14.75;;;12.00;;
32319;SDS011;19080;51.750;5.888;2023-06-24T05:36:18;15.55;;;13.95;;
32319;SDS011;19080;51.750;5.888;2023-06-24T05:38:45;12.60;;;11.30;;
32319;SDS011;19080;51.750;5.888;2023-06-24T05:41:12;14.35;;;12.85;;
32319;SDS011;19080;51.750;5.888;2023-06-24T05:43:38;15.27;;;13.48;;
32319;SDS011;19080;51.750;5.888;2023-06-24T05:46:07;12.43;;;11.20;;
32319;SDS011;19080;51.750;5.888;2023-06-24T05:48:34;11.65;;;9.50;;
32319;SDS011;19080;51.750;5.888;2023-06-24T05:51:01;10.52;;;9.43;;
32319;SDS011;19080;51.750;5.888;2023-06-24T05:53:28;9.85;;;8.40;;
32319;SDS011;19080;51.750;5.888;2023-06-24T05:55:55;10.48;;;8.95;;
32319;SDS011;19080;51.750;5.888;2023-06-24T05:58:22;9.73;;;8.82;;
32319;SDS011;19080;51.750;5.888;2023-06-24T06:00:48;10.52;;;8.07;;
32319;SDS011;19080;51.750;5.888;2023-06-24T06:03:15;13.27;;;9.15;;
32319;SDS011;19080;51.750;5.888;2023-06-24T06:05:42;9.95;;;8.93;;
32319;SDS011;19080;51.750;5.888;2023-06-24T06:08:08;11.95;;;8.60;;
32319;SDS011;19080;51.750;5.888;2023-06-24T06:10:35;8.88;;;7.75;;
32319;SDS011;19080;51.750;5.888;2023-06-24T06:13:01;10.02;;;8.13;;
32319;SDS011;19080;51.750;5.888;2023-06-24T06:15:28;12.27;;;8.20;;
32319;SDS011;19080;51.750;5.888;2023-06-24T06:17:56;7.25;;;6.25;;
32319;SDS011;19080;51.750;5.888;2023-06-24T06:20:22;9.23;;;7.43;;
32319;SDS011;19080;51.750;5.888;2023-06-24T06:22:49;8.65;;;7.72;;
32319;SDS011;19080;51.750;5.888;2023-06-24T06:25:17;7.53;;;6.82;;
32319;SDS011;19080;51.750;5.888;2023-06-24T06:27:44;7.32;;;6.57;;
32319;SDS011;19080;51.750;5.888;2023-06-24T06:30:11;10.25;;;7.75;;
32319;SDS011;19080;51.750;5.888;2023-06-24T06:32:38;7.03;;;6.32;;
32319;SDS011;19080;51.750;5.888;2023-06-24T06:35:05;9.75;;;6.75;;
32319;SDS011;19080;51.750;5.888;2023-06-24T06:37:32;8.75;;;7.60;;
32319;SDS011;19080;51.750;5.888;2023-06-24T06:39:59;7.82;;;6.18;;
32319;SDS011;19080;51.750;5.888;2023-06-24T06:42:26;8.68;;;6.75;;
32319;SDS011;19080;51.750;5.888;2023-06-24T06:44:52;7.38;;;6.28;;
32319;SDS011;19080;51.750;5.888;2023-06-24T06:47:19;9.35;;;6.45;;
32319;SDS011;19080;51.750;5.888;2023-06-24T06:49:46;6.75;;;5.57;;
32319;SDS011;19080;51.750;5.888;2023-06-24T06:52:12;7.05;;;6.07;;
32319;SDS011;19080;51.750;5.888;2023-06-24T06:54:43;6.43;;;5.82;;
32319;SDS011;19080;51.750;5.888;2023-06-24T06:57:10;6.65;;;5.97;;
32319;SDS011;19080;51.750;5.888;2023-06-24T06:59:36;8.15;;;5.65;;
32319;SDS011;19080;51.750;5.888;2023-06-24T07:02:03;8.63;;;7.05;;
32319;SDS011;19080;51.750;5.888;2023-06-24T07:04:30;11.00;;;7.13;;
32319;SDS011;19080;51.750;5.888;2023-06-24T07:06:57;8.13;;;6.15;;
32319;SDS011;19080;51.750;5.888;2023-06-24T07:09:24;7.85;;;7.03;;
32319;SDS011;19080;51.750;5.888;2023-06-24T07:11:51;7.70;;;6.90;;
32319;SDS011;19080;51.750;5.888;2023-06-24T07:14:17;8.68;;;6.93;;
32319;SDS011;19080;51.750;5.888;2023-06-24T07:16:44;7.25;;;6.55;;
32319;SDS011;19080;51.750;5.888;2023-06-24T07:19:11;9.18;;;7.60;;
32319;SDS011;19080;51.750;5.888;2023-06-24T07:21:37;10.35;;;7.20;;
32319;SDS011;19080;51.750;5.888;2023-06-24T07:24:04;7.90;;;6.95;;
32319;SDS011;19080;51.750;5.888;2023-06-24T07:26:31;10.85;;;8.38;;
32319;SDS011;19080;51.750;5.888;2023-06-24T07:28:58;9.85;;;7.47;;
32319;SDS011;19080;51.750;5.888;2023-06-24T07:31:35;11.00;;;8.02;;
32319;SDS011;19080;51.750;5.888;2023-06-24T07:34:03;10.57;;;7.63;;
32319;SDS011;19080;51.750;5.888;2023-06-24T07:36:30;8.52;;;7.47;;
32319;SDS011;19080;51.750;5.888;2023-06-24T07:38:57;11.07;;;7.85;;
32319;SDS011;19080;51.750;5.888;2023-06-24T07:41:24;9.30;;;7.50;;
32319;SDS011;19080;51.750;5.888;2023-06-24T07:43:50;8.48;;;7.63;;
32319;SDS011;19080;51.750;5.888;2023-06-24T07:46:17;8.27;;;6.80;;
32319;SDS011;19080;51.750;5.888;2023-06-24T07:48:44;12.60;;;8.48;;
32319;SDS011;19080;51.750;5.888;2023-06-24T07:51:11;11.27;;;9.20;;
32319;SDS011;19080;51.750;5.888;2023-06-24T07:53:37;10.10;;;8.80;;
32319;SDS011;19080;51.750;5.888;2023-06-24T07:56:04;13.63;;;10.57;;
32319;SDS011;19080;51.750;5.888;2023-06-24T07:58:31;11.73;;;10.43;;
32319;SDS011;19080;51.750;5.888;2023-06-24T08:00:57;13.27;;;10.63;;
32319;SDS011;19080;51.750;5.888;2023-06-24T08:03:24;8.95;;;8.05;;
32319;SDS011;19080;51.750;5.888;2023-06-24T08:05:51;9.75;;;7.30;;
32319;SDS011;19080;51.750;5.888;2023-06-24T08:08:18;8.77;;;7.45;;
32319;SDS011;19080;51.750;5.888;2023-06-24T08:10:46;8.13;;;5.93;;
32319;SDS011;19080;51.750;5.888;2023-06-24T08:13:13;9.50;;;7.15;;
32319;SDS011;19080;51.750;5.888;2023-06-24T08:15:39;6.63;;;5.93;;
32319;SDS011;19080;51.750;5.888;2023-06-24T08:18:08;7.00;;;6.30;;
32319;SDS011;19080;51.750;5.888;2023-06-24T08:20:34;6.82;;;6.20;;
32319;SDS011;19080;51.750;5.888;2023-06-24T08:23:01;7.90;;;6.32;;
32319;SDS011;19080;51.750;5.888;2023-06-24T08:25:28;8.10;;;7.30;;
32319;SDS011;19080;51.750;5.888;2023-06-24T08:27:55;8.02;;;6.85;;
32319;SDS011;19080;51.750;5.888;2023-06-24T08:30:21;8.38;;;7.47;;
32319;SDS011;19080;51.750;5.888;2023-06-24T08:32:48;8.52;;;7.18;;
32319;SDS011;19080;51.750;5.888;2023-06-24T08:35:15;8.40;;;7.63;;
32319;SDS011;19080;51.750;5.888;2023-06-24T08:37:41;7.32;;;6.63;;
32319;SDS011;19080;51.750;5.888;2023-06-24T08:40:08;7.72;;;6.93;;
32319;SDS011;19080;51.750;5.888;2023-06-24T08:42:35;7.20;;;6.40;;
32319;SDS011;19080;51.750;5.888;2023-06-24T08:45:02;8.63;;;6.00;;
32319;SDS011;19080;51.750;5.888;2023-06-24T08:47:29;7.60;;;6.80;;
32319;SDS011;19080;51.750;5.888;2023-06-24T08:50:18;9.05;;;7.00;;
32319;SDS011;19080;51.750;5.888;2023-06-24T08:52:50;8.45;;;5.25;;
32319;SDS011;19080;51.750;5.888;2023-06-24T08:55:19;6.53;;;5.90;;
32319;SDS011;19080;51.750;5.888;2023-06-24T08:57:49;6.45;;;5.75;;
32319;SDS011;19080;51.750;5.888;2023-06-24T09:00:17;7.05;;;6.35;;
32319;SDS011;19080;51.750;5.888;2023-06-24T09:02:44;7.03;;;6.32;;
32319;SDS011;19080;51.750;5.888;2023-06-24T09:05:11;8.80;;;6.70;;
32319;SDS011;19080;51.750;5.888;2023-06-24T09:07:38;7.55;;;6.72;;
32319;SDS011;19080;51.750;5.888;2023-06-24T09:10:05;8.23;;;6.55;;
32319;SDS011;19080;51.750;5.888;2023-06-24T09:12:32;6.47;;;4.97;;
32319;SDS011;19080;51.750;5.888;2023-06-24T09:15:00;6.28;;;5.70;;
32319;SDS011;19080;51.750;5.888;2023-06-24T09:17:27;7.32;;;6.28;;
32319;SDS011;19080;51.750;5.888;2023-06-24T09:20:02;7.50;;;5.68;;
32319;SDS011;19080;51.750;5.888;2023-06-24T09:22:31;7.22;;;5.55;;
32319;SDS011;19080;51.750;5.888;2023-06-24T09:25:00;5.88;;;5.28;;
32319;SDS011;19080;51.750;5.888;2023-06-24T09:27:30;6.03;;;4.55;;
32319;SDS011;19080;51.750;5.888;2023-06-24T09:29:57;5.05;;;4.43;;
32319;SDS011;19080;51.750;5.888;2023-06-24T09:32:31;4.45;;;4.03;;
32319;SDS011;19080;51.750;5.888;2023-06-24T09:34:58;5.38;;;4.05;;
32319;SDS011;19080;51.750;5.888;2023-06-24T09:37:29;6.43;;;4.50;;
32319;SDS011;19080;51.750;5.888;2023-06-24T09:39:58;5.72;;;4.60;;
32319;SDS011;19080;51.750;5.888;2023-06-24T09:42:25;5.53;;;4.97;;
32319;SDS011;19080;51.750;5.888;2023-06-24T09:44:52;4.57;;;4.18;;
32319;SDS011;19080;51.750;5.888;2023-06-24T09:47:21;3.70;;;3.38;;
32319;SDS011;19080;51.750;5.888;2023-06-24T09:49:51;4.82;;;3.33;;
32319;SDS011;19080;51.750;5.888;2023-06-24T09:52:18;3.65;;;2.88;;
32319;SDS011;19080;51.750;5.888;2023-06-24T09:54:46;4.70;;;3.40;;
32319;SDS011;19080;51.750;5.888;2023-06-24T09:57:18;4.07;;;3.45;;
32319;SDS011;19080;51.750;5.888;2023-06-24T09:59:51;5.18;;;3.72;;
32319;SDS011;19080;51.750;5.888;2023-06-24T10:02:18;4.18;;;3.83;;
32319;SDS011;19080;51.750;5.888;2023-06-24T10:04:46;5.03;;;4.10;;
32319;SDS011;19080;51.750;5.888;2023-06-24T10:07:13;5.15;;;4.03;;
32319;SDS011;19080;51.750;5.888;2023-06-24T10:09:41;4.55;;;3.47;;
32319;SDS011;19080;51.750;5.888;2023-06-24T10:12:09;3.97;;;3.58;;
32319;SDS011;19080;51.750;5.888;2023-06-24T10:14:36;5.20;;;3.70;;
32319;SDS011;19080;51.750;5.888;2023-06-24T10:17:04;4.25;;;3.35;;
32319;SDS011;19080;51.750;5.888;2023-06-24T10:19:37;4.00;;;3.55;;
32319;SDS011;19080;51.750;5.888;2023-06-24T10:22:08;4.60;;;4.15;;
32319;SDS011;19080;51.750;5.888;2023-06-24T10:24:37;3.72;;;3.42;;
32319;SDS011;19080;51.750;5.888;2023-06-24T10:27:16;3.45;;;3.15;;
32319;SDS011;19080;51.750;5.888;2023-06-24T10:29:50;3.38;;;2.97;;
32319;SDS011;19080;51.750;5.888;2023-06-24T10:32:21;4.85;;;3.50;;
32319;SDS011;19080;51.750;5.888;2023-06-24T10:34:56;4.63;;;3.20;;
32319;SDS011;19080;51.750;5.888;2023-06-24T10:37:24;3.50;;;3.10;;
32319;SDS011;19080;51.750;5.888;2023-06-24T10:40:01;6.78;;;3.15;;
32319;SDS011;19080;51.750;5.888;2023-06-24T10:42:41;3.03;;;2.65;;
32319;SDS011;19080;51.750;5.888;2023-06-24T10:47:36;3.90;;;3.60;;
32319;SDS011;19080;51.750;5.888;2023-06-24T10:50:05;3.97;;;2.97;;
32319;SDS011;19080;51.750;5.888;2023-06-24T10:52:37;3.63;;;3.17;;
32319;SDS011;19080;51.750;5.888;2023-06-24T10:55:05;4.05;;;3.35;;
32319;SDS011;19080;51.750;5.888;2023-06-24T10:57:33;4.18;;;3.40;;
32319;SDS011;19080;51.750;5.888;2023-06-24T11:00:04;6.03;;;3.28;;
32319;SDS011;19080;51.750;5.888;2023-06-24T11:02:31;4.72;;;3.80;;
32319;SDS011;19080;51.750;5.888;2023-06-24T11:04:59;4.70;;;4.05;;
32319;SDS011;19080;51.750;5.888;2023-06-24T11:07:29;4.53;;;3.60;;
32319;SDS011;19080;51.750;5.888;2023-06-24T11:09:58;4.13;;;3.72;;
32319;SDS011;19080;51.750;5.888;2023-06-24T11:12:30;5.13;;;4.00;;
32319;SDS011;19080;51.750;5.888;2023-06-24T11:14:58;4.32;;;3.42;;
32319;SDS011;19080;51.750;5.888;2023-06-24T11:17:26;4.93;;;3.47;;
32319;SDS011;19080;51.750;5.888;2023-06-24T11:19:54;4.40;;;3.88;;
32319;SDS011;19080;51.750;5.888;2023-06-24T11:22:22;7.10;;;3.75;;
32319;SDS011;19080;51.750;5.888;2023-06-24T11:24:50;4.88;;;3.05;;
32319;SDS011;19080;51.750;5.888;2023-06-24T11:27:23;5.40;;;4.07;;
32319;SDS011;19080;51.750;5.888;2023-06-24T11:29:51;4.10;;;3.38;;
32319;SDS011;19080;51.750;5.888;2023-06-24T11:32:19;4.93;;;3.97;;
32319;SDS011;19080;51.750;5.888;2023-06-24T11:34:46;3.85;;;3.40;;
32319;SDS011;19080;51.750;5.888;2023-06-24T11:37:15;6.10;;;3.63;;
32319;SDS011;19080;51.750;5.888;2023-06-24T11:39:44;3.97;;;3.35;;
32319;SDS011;19080;51.750;5.888;2023-06-24T11:42:11;3.97;;;3.40;;
32319;SDS011;19080;51.750;5.888;2023-06-24T11:44:41;4.95;;;3.50;;
32319;SDS011;19080;51.750;5.888;2023-06-24T11:47:11;5.32;;;3.40;;
32319;SDS011;19080;51.750;5.888;2023-06-24T11:49:50;5.97;;;3.35;;
32319;SDS011;19080;51.750;5.888;2023-06-24T11:55:11;4.05;;;3.65;;
32319;SDS011;19080;51.750;5.888;2023-06-24T11:57:52;5.18;;;4.15;;
32319;SDS011;19080;51.750;5.888;2023-06-24T12:00:30;6.50;;;3.78;;
32319;SDS011;19080;51.750;5.888;2023-06-24T12:02:59;6.10;;;3.75;;
32319;SDS011;19080;51.750;5.888;2023-06-24T12:05:30;4.15;;;3.53;;
32319;SDS011;19080;51.750;5.888;2023-06-24T12:07:58;3.28;;;2.90;;
32319;SDS011;19080;51.750;5.888;2023-06-24T12:10:29;4.65;;;3.22;;
32319;SDS011;19080;51.750;5.888;2023-06-24T12:12:59;4.57;;;3.08;;
32319;SDS011;19080;51.750;5.888;2023-06-24T12:15:27;4.18;;;2.83;;
32319;SDS011;19080;51.750;5.888;2023-06-24T12:17:54;4.07;;;3.67;;
32319;SDS011;19080;51.750;5.888;2023-06-24T12:20:21;3.38;;;3.08;;
32319;SDS011;19080;51.750;5.888;2023-06-24T12:22:48;4.60;;;3.53;;
32319;SDS011;19080;51.750;5.888;2023-06-24T12:25:15;4.00;;;3.25;;
32319;SDS011;19080;51.750;5.888;2023-06-24T12:27:43;7.28;;;3.10;;
32319;SDS011;19080;51.750;5.888;2023-06-24T12:30:10;5.22;;;2.75;;
32319;SDS011;19080;51.750;5.888;2023-06-24T12:32:38;4.13;;;3.30;;
32319;SDS011;19080;51.750;5.888;2023-06-24T12:35:05;2.85;;;2.53;;
32319;SDS011;19080;51.750;5.888;2023-06-24T12:37:34;5.05;;;2.97;;
32319;SDS011;19080;51.750;5.888;2023-06-24T12:40:04;3.50;;;2.85;;
32319;SDS011;19080;51.750;5.888;2023-06-24T12:42:32;3.22;;;2.78;;
32319;SDS011;19080;51.750;5.888;2023-06-24T12:44:59;4.22;;;2.63;;
32319;SDS011;19080;51.750;5.888;2023-06-24T12:47:26;2.53;;;2.33;;
32319;SDS011;19080;51.750;5.888;2023-06-24T12:49:53;4.20;;;2.95;;
32319;SDS011;19080;51.750;5.888;2023-06-24T12:52:19;5.47;;;2.67;;
32319;SDS011;19080;51.750;5.888;2023-06-24T12:54:46;3.85;;;2.58;;
32319;SDS011;19080;51.750;5.888;2023-06-24T12:57:14;7.00;;;3.10;;
32319;SDS011;19080;51.750;5.888;2023-06-24T12:59:41;3.60;;;2.97;;
32319;SDS011;19080;51.750;5.888;2023-06-24T13:02:08;4.43;;;3.20;;
32319;SDS011;19080;51.750;5.888;2023-06-24T13:04:34;4.82;;;2.72;;
32319;SDS011;19080;51.750;5.888;2023-06-24T13:07:01;4.60;;;2.63;;
32319;SDS011;19080;51.750;5.888;2023-06-24T13:09:28;4.80;;;3.08;;
32319;SDS011;19080;51.750;5.888;2023-06-24T13:11:55;4.05;;;3.10;;
32319;SDS011;19080;51.750;5.888;2023-06-24T13:14:21;4.15;;;3.65;;
32319;SDS011;19080;51.750;5.888;2023-06-24T13:16:48;11.15;;;3.67;;
32319;SDS011;19080;51.750;5.888;2023-06-24T13:19:15;4.70;;;3.53;;
32319;SDS011;19080;51.750;5.888;2023-06-24T13:21:43;4.00;;;3.38;;
32319;SDS011;19080;51.750;5.888;2023-06-24T13:24:10;4.55;;;3.33;;
32319;SDS011;19080;51.750;5.888;2023-06-24T13:26:38;5.15;;;3.30;;
32319;SDS011;19080;51.750;5.888;2023-06-24T13:29:05;4.25;;;3.20;;
32319;SDS011;19080;51.750;5.888;2023-06-24T13:31:33;4.07;;;3.30;;
32319;SDS011;19080;51.750;5.888;2023-06-24T13:34:00;3.65;;;3.17;;
32319;SDS011;19080;51.750;5.888;2023-06-24T13:36:31;3.40;;;2.70;;
32319;SDS011;19080;51.750;5.888;2023-06-24T13:38:59;3.80;;;3.40;;
32319;SDS011;19080;51.750;5.888;2023-06-24T13:41:26;4.55;;;3.25;;
32319;SDS011;19080;51.750;5.888;2023-06-24T13:43:59;4.15;;;3.75;;
32319;SDS011;19080;51.750;5.888;2023-06-24T13:46:27;3.38;;;2.90;;
32319;SDS011;19080;51.750;5.888;2023-06-24T13:48:54;3.08;;;2.38;;
32319;SDS011;19080;51.750;5.888;2023-06-24T13:51:22;3.63;;;3.05;;
32319;SDS011;19080;51.750;5.888;2023-06-24T13:53:49;2.85;;;2.63;;
32319;SDS011;19080;51.750;5.888;2023-06-24T13:56:18;2.70;;;2.50;;
32319;SDS011;19080;51.750;5.888;2023-06-24T13:58:45;3.10;;;2.83;;
32319;SDS011;19080;51.750;5.888;2023-06-24T14:01:13;4.32;;;2.63;;
32319;SDS011;19080;51.750;5.888;2023-06-24T14:03:40;2.85;;;2.65;;
32319;SDS011;19080;51.750;5.888;2023-06-24T14:06:07;4.60;;;3.15;;
32319;SDS011;19080;51.750;5.888;2023-06-24T14:08:34;4.15;;;3.08;;
32319;SDS011;19080;51.750;5.888;2023-06-24T14:11:02;3.65;;;3.30;;
32319;SDS011;19080;51.750;5.888;2023-06-24T14:13:30;3.60;;;2.90;;
32319;SDS011;19080;51.750;5.888;2023-06-24T14:15:57;4.25;;;2.85;;
32319;SDS011;19080;51.750;5.888;2023-06-24T14:18:24;2.65;;;2.38;;
32319;SDS011;19080;51.750;5.888;2023-06-24T14:20:51;6.00;;;3.15;;
32319;SDS011;19080;51.750;5.888;2023-06-24T14:23:18;3.55;;;3.10;;
32319;SDS011;19080;51.750;5.888;2023-06-24T14:25:45;4.53;;;3.20;;
32319;SDS011;19080;51.750;5.888;2023-06-24T14:28:11;3.00;;;2.70;;
32319;SDS011;19080;51.750;5.888;2023-06-24T14:30:38;5.32;;;2.85;;
32319;SDS011;19080;51.750;5.888;2023-06-24T14:33:05;2.92;;;2.70;;
32319;SDS011;19080;51.750;5.888;2023-06-24T14:35:32;3.33;;;3.03;;
32319;SDS011;19080;51.750;5.888;2023-06-24T14:37:58;4.75;;;3.15;;
32319;SDS011;19080;51.750;5.888;2023-06-24T14:40:25;5.28;;;3.30;;
32319;SDS011;19080;51.750;5.888;2023-06-24T14:42:52;4.38;;;3.03;;
32319;SDS011;19080;51.750;5.888;2023-06-24T14:45:18;3.92;;;3.38;;
32319;SDS011;19080;51.750;5.888;2023-06-24T14:47:45;4.47;;;2.90;;
32319;SDS011;19080;51.750;5.888;2023-06-24T14:50:12;3.03;;;2.72;;
32319;SDS011;19080;51.750;5.888;2023-06-24T14:52:38;4.43;;;3.17;;
32319;SDS011;19080;51.750;5.888;2023-06-24T14:55:05;3.38;;;2.90;;
32319;SDS011;19080;51.750;5.888;2023-06-24T14:57:32;2.88;;;2.65;;
32319;SDS011;19080;51.750;5.888;2023-06-24T14:59:59;5.28;;;3.10;;